createdAt,value
2022-08-19T00:00:04.137Z,51.6
2022-08-19T00:01:04.018Z,51.6
2022-08-19T00:02:04.009Z,51.6
2022-08-19T00:03:04.024Z,51.7
2022-08-19T00:04:04.047Z,51.6
2022-08-19T00:05:04.047Z,51.6
2022-08-19T00:06:04.028Z,51.7
2022-08-19T00:07:03.997Z,51.6
2022-08-19T00:08:04.084Z,51.6
2022-08-19T00:09:04.006Z,51.4
2022-08-19T00:10:04.073Z,51.3
2022-08-19T00:11:04.007Z,51.1
2022-08-19T00:12:04.019Z,51.1
2022-08-19T00:13:04.013Z,51.3
2022-08-19T00:14:04.026Z,51.3
2022-08-19T00:15:04.035Z,51.4
2022-08-19T00:16:04.005Z,51.5
2022-08-19T00:17:04.027Z,51.6
2022-08-19T00:18:04.027Z,51.6
2022-08-19T00:19:04.017Z,51.7
2022-08-19T00:20:04.025Z,51.8
2022-08-19T00:21:04.007Z,51.6
2022-08-19T00:22:04.017Z,51.8
2022-08-19T00:23:04.015Z,51.9
2022-08-19T00:24:03.997Z,51.9
2022-08-19T00:25:04.037Z,52.0
2022-08-19T00:26:03.997Z,51.8
2022-08-19T00:27:25.328Z,52.0
2022-08-19T00:28:04.019Z,52.1
2022-08-19T00:29:04.029Z,52.2
2022-08-19T00:30:04.051Z,52.3
2022-08-19T00:31:04.011Z,52.1
2022-08-19T00:32:04.007Z,52.1
2022-08-19T00:33:04.009Z,52.2
2022-08-19T00:34:04.082Z,52.4
2022-08-19T00:35:04.039Z,52.4
2022-08-19T00:36:04.038Z,52.8
2022-08-19T00:37:04.026Z,53.1
2022-08-19T00:38:03.997Z,53.5
2022-08-19T00:39:04.019Z,53.8
2022-08-19T00:40:04.068Z,53.6
2022-08-19T00:41:04.010Z,53.4
2022-08-19T00:42:04.037Z,53.4
2022-08-19T00:43:04.031Z,53.5
2022-08-19T00:44:04.046Z,53.4
2022-08-19T00:45:04.064Z,53.5
2022-08-19T00:46:04.121Z,53.6
2022-08-19T00:47:04.101Z,54.2
2022-08-19T00:48:04.080Z,54.4
2022-08-19T00:49:04.134Z,54.7
2022-08-19T00:50:04.144Z,54.9
2022-08-19T00:51:04.045Z,54.8
2022-08-19T00:52:04.033Z,55.2
2022-08-19T00:53:04.037Z,55.1
2022-08-19T00:54:04.110Z,55.0
2022-08-19T00:55:04.063Z,54.8
2022-08-19T00:56:04.086Z,54.5
2022-08-19T00:57:04.027Z,54.4
2022-08-19T00:58:04.017Z,54.5
2022-08-19T00:59:04.023Z,54.5
2022-08-19T01:00:04.003Z,54.5
2022-08-19T01:01:04.037Z,54.4
2022-08-19T01:02:04.014Z,54.2
2022-08-19T01:03:04.112Z,54.2
2022-08-19T01:04:04.015Z,54.5
2022-08-19T01:05:04.019Z,54.7
2022-08-19T01:06:04.039Z,54.4
2022-08-19T01:07:04.012Z,54.4
2022-08-19T01:08:04.022Z,54.5
2022-08-19T01:09:04.041Z,55.0
2022-08-19T01:10:04.004Z,54.7
2022-08-19T01:11:04.177Z,54.7
2022-08-19T01:12:04.013Z,54.8
2022-08-19T01:13:04.023Z,54.7
2022-08-19T01:14:04.034Z,54.5
2022-08-19T01:15:04.153Z,54.2
2022-08-19T01:16:04.046Z,54.2
2022-08-19T01:17:04.019Z,54.0
2022-08-19T01:18:04.022Z,54.1
2022-08-19T01:19:04.057Z,54.0
2022-08-19T01:20:04.021Z,53.9
2022-08-19T01:21:04.024Z,53.8
2022-08-19T01:22:04.097Z,53.8
2022-08-19T01:23:04.024Z,53.9
2022-08-19T01:24:04.033Z,54.0
2022-08-19T01:25:06.975Z,54.2
2022-08-19T01:26:04.016Z,54.3
2022-08-19T01:27:04.049Z,54.4
2022-08-19T01:28:10.859Z,54.4
2022-08-19T01:29:05.160Z,54.7
2022-08-19T01:30:04.037Z,54.6
2022-08-19T01:31:07.094Z,54.7
2022-08-19T01:32:04.013Z,54.6
2022-08-19T01:33:04.059Z,54.7
2022-08-19T01:34:04.061Z,54.6
2022-08-19T01:35:04.246Z,54.4
2022-08-19T01:36:04.028Z,54.2
2022-08-19T01:37:04.046Z,54.3
2022-08-19T01:38:04.025Z,54.1
2022-08-19T01:39:04.047Z,53.9
2022-08-19T01:40:08.865Z,54.0
2022-08-19T01:41:04.022Z,54.0
2022-08-19T01:42:04.019Z,54.0
2022-08-19T01:43:04.030Z,53.9
2022-08-19T01:44:18.045Z,53.9
2022-08-19T01:45:04.039Z,54.0
2022-08-19T01:46:04.040Z,54.1
2022-08-19T01:47:04.034Z,54.0
2022-08-19T01:48:04.017Z,53.9
2022-08-19T01:49:04.030Z,53.9
2022-08-19T01:50:04.033Z,53.7
2022-08-19T01:51:04.034Z,53.9
2022-08-19T01:52:04.076Z,53.9
2022-08-19T01:53:07.634Z,53.9
2022-08-19T01:54:04.027Z,54.0
2022-08-19T01:55:04.031Z,53.8
2022-08-19T01:56:04.016Z,53.9
2022-08-19T01:57:04.029Z,53.8
2022-08-19T01:58:04.028Z,54.0
2022-08-19T01:59:04.044Z,53.9
2022-08-19T02:00:04.033Z,53.8
2022-08-19T02:01:04.149Z,53.6
2022-08-19T02:02:04.039Z,53.4
2022-08-19T02:03:04.036Z,53.6
2022-08-19T02:04:04.027Z,53.7
2022-08-19T02:05:04.036Z,53.7
2022-08-19T02:06:04.133Z,53.7
2022-08-19T02:07:04.041Z,53.8
2022-08-19T02:08:04.021Z,53.9
2022-08-19T02:09:04.060Z,53.8
2022-08-19T02:10:04.031Z,53.9
2022-08-19T02:11:04.039Z,53.9
2022-08-19T02:12:04.040Z,53.9
2022-08-19T02:13:04.042Z,53.9
2022-08-19T02:14:04.029Z,53.9
2022-08-19T02:15:04.033Z,53.6
2022-08-19T02:16:04.337Z,53.6
2022-08-19T02:17:04.053Z,53.5
2022-08-19T02:18:04.046Z,53.7
2022-08-19T02:19:04.033Z,53.6
2022-08-19T02:20:04.033Z,53.7
2022-08-19T02:21:04.042Z,53.7
2022-08-19T02:22:04.078Z,53.7
2022-08-19T02:23:04.046Z,53.7
2022-08-19T02:24:04.078Z,53.8
2022-08-19T02:25:04.047Z,53.7
2022-08-19T02:26:04.058Z,53.6
2022-08-19T02:27:04.047Z,53.6
2022-08-19T02:28:04.034Z,53.6
2022-08-19T02:29:04.090Z,53.7
2022-08-19T02:30:04.031Z,53.6
2022-08-19T02:31:04.086Z,53.5
2022-08-19T02:32:04.045Z,53.5
2022-08-19T02:33:04.111Z,53.6
2022-08-19T02:34:04.028Z,53.8
2022-08-19T02:35:04.038Z,53.7
2022-08-19T02:36:04.039Z,53.8
2022-08-19T02:37:04.107Z,53.8
2022-08-19T02:38:04.044Z,53.9
2022-08-19T02:39:04.051Z,53.8
2022-08-19T02:40:04.132Z,53.9
2022-08-19T02:41:04.070Z,54.1
2022-08-19T02:42:04.048Z,54.2
2022-08-19T02:43:04.050Z,54.2
2022-08-19T02:44:29.303Z,54.2
2022-08-19T02:45:04.052Z,54.5
2022-08-19T02:46:04.044Z,54.4
2022-08-19T02:47:04.045Z,54.4
2022-08-19T02:48:10.103Z,54.5
2022-08-19T02:49:04.095Z,54.6
2022-08-19T02:50:04.072Z,54.6
2022-08-19T02:51:04.043Z,54.8
2022-08-19T02:52:08.456Z,54.8
2022-08-19T02:53:04.076Z,55.2
2022-08-19T02:54:04.043Z,55.4
2022-08-19T02:55:04.052Z,55.7
2022-08-19T02:56:04.057Z,55.6
2022-08-19T02:57:04.048Z,55.4
2022-08-19T02:58:04.067Z,55.4
2022-08-19T02:59:04.063Z,55.2
2022-08-19T03:00:04.167Z,55.1
2022-08-19T03:01:04.228Z,54.8
2022-08-19T03:02:04.055Z,54.7
2022-08-19T03:03:04.208Z,55.0
2022-08-19T03:04:04.057Z,55.0
2022-08-19T03:05:04.072Z,54.8
2022-08-19T03:06:04.043Z,54.8
2022-08-19T03:07:10.658Z,54.6
2022-08-19T03:08:04.073Z,54.6
2022-08-19T03:09:04.060Z,54.7
2022-08-19T03:10:04.116Z,55.1
2022-08-19T03:11:04.107Z,54.9
2022-08-19T03:12:04.177Z,54.7
2022-08-19T03:13:04.755Z,54.9
2022-08-19T03:14:04.086Z,55.0
2022-08-19T03:15:04.057Z,54.6
2022-08-19T03:16:04.114Z,54.4
2022-08-19T03:17:04.172Z,54.6
2022-08-19T03:18:04.177Z,54.8
2022-08-19T03:19:04.197Z,54.8
2022-08-19T03:20:04.247Z,54.7
2022-08-19T03:21:04.215Z,54.7
2022-08-19T03:22:04.483Z,54.7
2022-08-19T03:23:04.178Z,54.5
2022-08-19T03:24:04.148Z,54.7
2022-08-19T03:25:04.152Z,54.5
2022-08-19T03:26:15.881Z,54.5
2022-08-19T03:27:04.065Z,54.6
2022-08-19T03:28:04.066Z,54.6
2022-08-19T03:29:05.589Z,54.5
2022-08-19T03:30:04.081Z,54.4
2022-08-19T03:31:04.050Z,54.2
2022-08-19T03:32:04.654Z,54.4
2022-08-19T03:33:04.057Z,54.2
2022-08-19T03:34:04.055Z,54.2
2022-08-19T03:35:04.117Z,54.1
2022-08-19T03:36:04.071Z,53.8
2022-08-19T03:37:04.095Z,53.9
2022-08-19T03:38:04.068Z,53.7
2022-08-19T03:39:04.055Z,53.8
2022-08-19T03:40:04.090Z,53.9
2022-08-19T03:41:04.059Z,54.1
2022-08-19T03:42:31.765Z,54.2
2022-08-19T03:43:04.296Z,54.9
2022-08-19T03:44:04.058Z,54.9
2022-08-19T03:45:04.067Z,54.9
2022-08-19T03:46:04.065Z,54.8
2022-08-19T03:47:04.112Z,54.7
2022-08-19T03:49:55.286Z,56.1
2022-08-19T03:50:03.962Z,55.6
2022-08-19T03:51:03.966Z,54.9
2022-08-19T03:52:03.976Z,54.9
2022-08-19T03:53:03.977Z,54.9
2022-08-19T03:54:03.976Z,54.7
2022-08-19T03:55:03.968Z,54.6
2022-08-19T03:56:03.972Z,54.5
2022-08-19T03:57:03.956Z,54.5
2022-08-19T03:58:03.980Z,54.8
2022-08-19T03:59:03.972Z,54.6
2022-08-19T04:00:13.681Z,54.4
2022-08-19T04:01:04.020Z,54.8
2022-08-19T04:02:03.980Z,55.4
2022-08-19T04:03:03.977Z,55.9
2022-08-19T04:04:04.738Z,55.9
2022-08-19T04:05:03.971Z,55.9
2022-08-19T04:06:03.991Z,55.7
2022-08-19T04:07:03.970Z,55.6
2022-08-19T04:08:03.980Z,55.3
2022-08-19T04:09:04.022Z,55.3
2022-08-19T04:10:03.979Z,55.2
2022-08-19T04:11:03.970Z,55.2
2022-08-19T04:12:03.970Z,55.2
2022-08-19T04:13:03.965Z,54.9
2022-08-19T04:14:04.378Z,54.9
2022-08-19T04:15:03.978Z,54.6
2022-08-19T04:16:03.984Z,54.6
2022-08-19T04:17:03.973Z,54.8
2022-08-19T04:18:03.981Z,54.7
2022-08-19T04:19:04.003Z,54.7
2022-08-19T04:20:06.895Z,54.5
2022-08-19T04:21:05.045Z,54.3
2022-08-19T04:22:03.976Z,54.2
2022-08-19T04:23:03.973Z,54.3
2022-08-19T04:24:04.144Z,54.3
2022-08-19T04:25:04.001Z,54.3
2022-08-19T04:26:03.994Z,54.4
2022-08-19T04:27:03.978Z,54.5
2022-08-19T04:28:03.975Z,54.6
2022-08-19T04:29:04.018Z,54.9
2022-08-19T04:30:03.979Z,54.8
2022-08-19T04:31:03.994Z,54.7
2022-08-19T04:32:09.328Z,54.7
2022-08-19T04:33:03.979Z,54.7
2022-08-19T04:34:04.011Z,54.5
2022-08-19T04:35:16.713Z,54.9
2022-08-19T04:36:03.999Z,54.8
2022-08-19T04:37:03.997Z,54.8
2022-08-19T04:38:03.983Z,54.7
2022-08-19T04:39:04.011Z,54.7
2022-08-19T04:40:04.137Z,54.6
2022-08-19T04:41:04.179Z,54.3
2022-08-19T04:42:03.979Z,54.1
2022-08-19T04:43:03.978Z,54.1
2022-08-19T04:44:04.642Z,54.1
2022-08-19T04:45:03.980Z,54.0
2022-08-19T04:46:03.997Z,54.1
2022-08-19T04:47:03.989Z,53.9
2022-08-19T04:48:26.417Z,53.8
2022-08-19T04:49:13.226Z,54.0
2022-08-19T04:50:04.013Z,53.8
2022-08-19T04:52:06.006Z,53.8
2022-08-19T04:52:09.995Z,56.3
2022-08-19T04:53:04.036Z,54.0
2022-08-19T04:54:03.986Z,54.1
2022-08-19T04:55:03.990Z,54.0
2022-08-19T04:56:04.235Z,53.7
2022-08-19T04:57:03.983Z,53.7
2022-08-19T04:58:03.984Z,53.7
2022-08-19T04:59:03.987Z,53.7
2022-08-19T05:00:03.998Z,53.4
2022-08-19T05:01:04.094Z,53.3
2022-08-19T05:02:04.004Z,53.2
2022-08-19T05:03:03.985Z,53.0
2022-08-19T05:04:03.987Z,53.3
2022-08-19T05:05:03.992Z,53.3
2022-08-19T05:06:03.997Z,53.4
2022-08-19T05:07:03.977Z,53.6
2022-08-19T05:08:04.008Z,53.6
2022-08-19T05:09:03.983Z,54.0
2022-08-19T05:10:04.012Z,54.0
2022-08-19T05:11:04.000Z,53.9
2022-08-19T05:12:03.994Z,53.9
2022-08-19T05:13:03.986Z,53.9
2022-08-19T05:14:03.992Z,54.0
2022-08-19T05:15:03.991Z,53.8
2022-08-19T05:16:04.165Z,54.0
2022-08-19T05:17:26.215Z,54.4
2022-08-19T05:18:04.020Z,54.4
2022-08-19T05:19:04.369Z,54.2
2022-08-19T05:20:03.998Z,54.1
2022-08-19T05:21:03.998Z,54.2
2022-08-19T05:22:03.995Z,54.5
2022-08-19T05:23:03.988Z,54.6
2022-08-19T05:24:03.992Z,54.7
2022-08-19T05:25:12.590Z,54.4
2022-08-19T05:26:03.997Z,54.4
2022-08-19T05:27:03.991Z,54.3
2022-08-19T05:28:04.067Z,54.3
2022-08-19T05:29:03.984Z,54.2
2022-08-19T05:30:04.044Z,54.2
2022-08-19T05:31:04.014Z,54.3
2022-08-19T05:32:03.995Z,54.2
2022-08-19T05:33:10.733Z,54.5
2022-08-19T05:34:04.414Z,54.3
2022-08-19T05:35:04.422Z,54.5
2022-08-19T05:36:04.413Z,54.3
2022-08-19T05:37:04.418Z,54.4
2022-08-19T05:38:04.406Z,54.4
2022-08-19T05:39:04.413Z,54.4
2022-08-19T05:40:04.451Z,54.3
2022-08-19T05:41:04.422Z,54.6
2022-08-19T05:42:04.413Z,54.9
2022-08-19T05:43:04.424Z,55.1
2022-08-19T05:44:04.426Z,55.0
2022-08-19T05:45:04.412Z,55.1
2022-08-19T05:46:04.418Z,55.3
2022-08-19T05:47:04.422Z,55.5
2022-08-19T05:48:04.420Z,55.1
2022-08-19T05:49:04.446Z,54.9
2022-08-19T05:50:04.934Z,55.3
2022-08-19T05:51:04.441Z,55.0
2022-08-19T05:52:04.450Z,54.8
2022-08-19T05:53:04.441Z,54.6
2022-08-19T05:54:04.413Z,54.5
2022-08-19T05:55:04.450Z,54.5
2022-08-19T05:56:04.425Z,54.4
2022-08-19T05:57:04.438Z,54.4
2022-08-19T05:58:04.422Z,54.4
2022-08-19T05:59:04.430Z,54.6
2022-08-19T06:00:04.416Z,54.9
2022-08-19T06:01:04.416Z,55.0
2022-08-19T06:02:04.418Z,55.2
2022-08-19T06:03:12.940Z,55.3
2022-08-19T06:04:04.430Z,55.4
2022-08-19T06:05:04.463Z,55.6
2022-08-19T06:06:04.426Z,55.6
2022-08-19T06:07:12.236Z,55.6
2022-08-19T06:08:04.427Z,55.7
2022-08-19T06:09:04.437Z,55.7
2022-08-19T06:10:04.411Z,55.8
2022-08-19T06:11:04.422Z,55.7
2022-08-19T06:12:04.423Z,55.8
2022-08-19T06:13:04.427Z,56.0
2022-08-19T06:14:04.591Z,55.9
2022-08-19T06:15:04.498Z,55.8
2022-08-19T06:16:04.422Z,55.6
2022-08-19T06:17:07.137Z,55.8
2022-08-19T06:18:04.443Z,55.8
2022-08-19T06:20:56.261Z,57.6
2022-08-19T06:21:04.339Z,57.2
2022-08-19T06:22:04.320Z,56.2
2022-08-19T06:23:04.321Z,56.1
2022-08-19T06:24:04.362Z,56.2
2022-08-19T06:25:04.320Z,55.8
2022-08-19T06:26:04.316Z,55.5
2022-08-19T06:27:04.326Z,55.7
2022-08-19T06:28:15.680Z,55.6
2022-08-19T06:29:04.330Z,55.9
2022-08-19T06:30:04.331Z,55.9
2022-08-19T06:31:04.405Z,56.0
2022-08-19T06:32:04.324Z,55.9
2022-08-19T06:33:04.330Z,55.9
2022-08-19T06:34:04.330Z,56.0
2022-08-19T06:35:04.331Z,55.9
2022-08-19T06:36:04.323Z,55.8
2022-08-19T06:37:04.331Z,55.7
2022-08-19T06:38:04.318Z,55.6
2022-08-19T06:39:04.333Z,55.6
2022-08-19T06:40:04.402Z,55.8
2022-08-19T06:41:07.624Z,56.0
2022-08-19T06:42:04.347Z,55.9
2022-08-19T06:43:05.659Z,55.9
2022-08-19T06:44:04.395Z,56.0
2022-08-19T06:45:04.332Z,55.9
2022-08-19T06:46:04.507Z,56.0
2022-08-19T06:47:09.581Z,55.8
2022-08-19T06:48:04.327Z,56.0
2022-08-19T06:49:04.333Z,55.8
2022-08-19T06:50:05.374Z,55.8
2022-08-19T06:51:04.343Z,55.7
2022-08-19T06:52:04.333Z,55.7
2022-08-19T06:53:04.626Z,55.7
2022-08-19T06:54:04.402Z,55.5
2022-08-19T06:55:06.244Z,55.4
2022-08-19T06:56:04.577Z,55.5
2022-08-19T06:57:04.338Z,55.5
2022-08-19T06:58:04.332Z,55.6
2022-08-19T06:59:04.343Z,55.6
2022-08-19T07:00:04.338Z,55.6
2022-08-19T07:01:07.093Z,55.7
2022-08-19T07:02:04.342Z,55.9
2022-08-19T07:03:07.809Z,55.7
2022-08-19T07:04:04.374Z,55.7
2022-08-19T07:05:04.331Z,55.5
2022-08-19T07:06:07.161Z,55.5
2022-08-19T07:07:09.484Z,55.5
2022-08-19T07:08:05.148Z,55.7
2022-08-19T07:09:04.435Z,55.6
2022-08-19T07:10:06.214Z,55.5
2022-08-19T07:11:04.357Z,55.3
2022-08-19T07:12:04.380Z,55.3
2022-08-19T07:13:04.331Z,55.3
2022-08-19T07:14:04.328Z,55.0
2022-08-19T07:15:04.357Z,55.0
2022-08-19T07:16:05.663Z,55.2
2022-08-19T07:17:04.343Z,55.3
2022-08-19T07:18:04.733Z,55.4
2022-08-19T07:19:04.843Z,55.5
2022-08-19T07:20:06.968Z,55.6
2022-08-19T07:21:04.536Z,55.5
2022-08-19T07:22:04.446Z,55.5
2022-08-19T07:23:07.187Z,55.5
2022-08-19T07:24:06.806Z,55.4
2022-08-19T07:25:04.352Z,55.2
2022-08-19T07:27:04.390Z,55.4
2022-08-19T07:28:04.355Z,55.4
2022-08-19T07:30:37.787Z,56.9
2022-08-19T07:31:04.535Z,55.8
2022-08-19T07:32:04.466Z,55.5
2022-08-19T07:33:04.505Z,55.2
2022-08-19T07:34:04.465Z,55.3
2022-08-19T07:35:04.492Z,55.2
2022-08-19T07:36:04.481Z,55.1
2022-08-19T07:37:04.502Z,55.2
2022-08-19T07:38:04.674Z,55.0
2022-08-19T07:39:04.528Z,55.1
2022-08-19T07:40:04.552Z,54.9
2022-08-19T07:41:04.473Z,55.1
2022-08-19T07:42:04.482Z,55.0
2022-08-19T07:43:04.490Z,54.8
2022-08-19T07:44:04.469Z,54.9
2022-08-19T07:45:04.473Z,54.8
2022-08-19T07:46:04.536Z,54.8
2022-08-19T07:47:04.460Z,54.5
2022-08-19T07:48:04.910Z,54.6
2022-08-19T07:49:04.500Z,54.6
2022-08-19T07:50:04.518Z,54.7
2022-08-19T07:51:04.494Z,54.7
2022-08-19T07:52:04.549Z,54.6
2022-08-19T07:53:04.466Z,54.5
2022-08-19T07:54:04.470Z,54.5
2022-08-19T07:55:04.515Z,54.3
2022-08-19T07:56:04.468Z,54.5
2022-08-19T07:57:04.468Z,54.4
2022-08-19T07:58:04.475Z,54.3
2022-08-19T07:59:04.479Z,54.4
2022-08-19T08:00:04.500Z,54.3
2022-08-19T08:01:04.526Z,54.2
2022-08-19T08:02:04.566Z,54.2
2022-08-19T08:03:04.472Z,54.2
2022-08-19T08:04:04.482Z,54.1
2022-08-19T08:05:04.708Z,54.1
2022-08-19T08:06:04.470Z,53.8
2022-08-19T08:07:04.605Z,53.9
2022-08-19T08:08:04.869Z,53.9
2022-08-19T08:09:04.513Z,53.9
2022-08-19T08:10:04.481Z,53.8
2022-08-19T08:11:07.577Z,53.9
2022-08-19T08:12:17.986Z,53.7
2022-08-19T08:13:10.187Z,53.9
2022-08-19T08:14:04.731Z,53.5
2022-08-19T08:15:04.474Z,53.5
2022-08-19T08:16:04.515Z,53.3
2022-08-19T08:18:37.012Z,54.2
2022-08-19T08:19:03.694Z,53.1
2022-08-19T08:20:04.425Z,52.9
2022-08-19T08:21:03.682Z,52.8
2022-08-19T08:22:03.724Z,52.7
2022-08-19T08:23:03.695Z,52.8
2022-08-19T08:24:03.682Z,52.7
2022-08-19T08:25:03.699Z,52.7
2022-08-19T08:26:03.689Z,52.7
2022-08-19T08:27:03.735Z,52.8
2022-08-19T08:28:03.710Z,52.8
2022-08-19T08:29:12.236Z,52.7
2022-08-19T08:30:03.693Z,52.7
2022-08-19T08:31:03.686Z,52.5
2022-08-19T08:32:03.683Z,52.5
2022-08-19T08:33:03.706Z,52.4
2022-08-19T08:34:03.687Z,52.3
2022-08-19T08:35:03.711Z,52.2
2022-08-19T08:36:03.800Z,52.0
2022-08-19T08:37:03.704Z,51.8
2022-08-19T08:38:03.697Z,51.6
2022-08-19T08:39:03.694Z,51.5
2022-08-19T08:40:03.813Z,51.4
2022-08-19T08:41:03.695Z,51.4
2022-08-19T08:42:10.336Z,51.2
2022-08-19T08:44:03.707Z,51.2
2022-08-19T08:45:03.713Z,51.1
2022-08-19T08:46:03.711Z,51.2
2022-08-19T08:47:03.693Z,51.2
2022-08-19T08:48:03.688Z,51.2
2022-08-19T08:49:03.695Z,51.4
2022-08-19T08:50:03.794Z,51.4
2022-08-19T08:51:03.714Z,51.5
2022-08-19T08:52:03.688Z,51.6
2022-08-19T08:53:03.698Z,51.5
2022-08-19T08:54:03.727Z,51.5
2022-08-19T08:55:03.703Z,51.6
2022-08-19T08:56:03.714Z,51.6
2022-08-19T08:57:03.708Z,51.8
2022-08-19T08:58:03.696Z,51.9
2022-08-19T08:59:03.715Z,51.8
2022-08-19T09:00:03.744Z,51.6
2022-08-19T09:01:03.723Z,51.5
2022-08-19T09:02:03.761Z,51.5
2022-08-19T09:03:03.717Z,51.5
2022-08-19T09:04:03.897Z,51.3
2022-08-19T09:05:41.455Z,52.4
2022-08-19T09:06:03.861Z,51.7
2022-08-19T09:07:03.869Z,51.2
2022-08-19T09:08:03.860Z,51.3
2022-08-19T09:09:03.895Z,51.1
2022-08-19T09:10:04.023Z,50.9
2022-08-19T09:11:03.864Z,50.7
2022-08-19T09:12:03.884Z,50.3
2022-08-19T09:13:03.872Z,50.0
2022-08-19T09:14:03.851Z,49.9
2022-08-19T09:15:03.897Z,49.8
2022-08-19T09:16:03.864Z,49.7
2022-08-19T09:17:03.967Z,49.7
2022-08-19T09:18:03.981Z,49.6
2022-08-19T09:19:04.024Z,49.6
2022-08-19T09:20:03.967Z,49.5
2022-08-19T09:21:04.020Z,49.4
2022-08-19T09:22:04.039Z,49.4
2022-08-19T09:23:04.001Z,49.3
2022-08-19T09:24:03.961Z,49.2
2022-08-19T09:25:03.865Z,49.0
2022-08-19T09:26:03.855Z,48.9
2022-08-19T09:27:08.307Z,48.6
2022-08-19T09:28:05.622Z,48.6
2022-08-19T09:29:03.871Z,48.4
2022-08-19T09:30:03.919Z,48.3
2022-08-19T09:31:03.989Z,48.2
2022-08-19T09:32:03.853Z,48.2
2022-08-19T09:33:03.903Z,48.5
2022-08-19T09:34:03.871Z,48.4
2022-08-19T09:35:03.994Z,48.4
2022-08-19T09:36:03.865Z,48.6
2022-08-19T09:37:03.866Z,48.8
2022-08-19T09:38:03.872Z,49.0
2022-08-19T09:39:03.880Z,49.0
2022-08-19T09:40:03.940Z,49.0
2022-08-19T09:41:04.998Z,48.8
2022-08-19T09:42:03.863Z,48.7
2022-08-19T09:43:10.251Z,48.8
2022-08-19T09:44:03.873Z,48.9
2022-08-19T09:45:05.334Z,48.8
2022-08-19T09:46:04.044Z,49.0
2022-08-19T09:47:03.870Z,48.9
2022-08-19T09:48:03.877Z,48.8
2022-08-19T09:49:06.742Z,48.8
2022-08-19T09:51:36.283Z,50.1
2022-08-19T09:52:03.967Z,49.0
2022-08-19T09:53:03.975Z,48.8
2022-08-19T09:54:04.891Z,48.6
2022-08-19T09:55:07.239Z,48.4
2022-08-19T09:56:04.263Z,47.9
2022-08-19T09:57:06.777Z,47.9
2022-08-19T09:58:04.050Z,47.9
2022-08-19T09:59:04.100Z,47.9
2022-08-19T10:00:03.957Z,48.0
2022-08-19T10:01:04.086Z,47.9
2022-08-19T10:02:10.696Z,47.9
2022-08-19T10:03:03.973Z,48.1
2022-08-19T10:04:08.983Z,48.0
2022-08-19T10:05:03.988Z,48.1
2022-08-19T10:06:03.990Z,47.9
2022-08-19T10:07:04.005Z,48.1
2022-08-19T10:08:04.550Z,48.1
2022-08-19T10:09:04.034Z,48.0
2022-08-19T10:10:04.023Z,47.9
2022-08-19T10:11:28.397Z,48.0
2022-08-19T10:12:03.964Z,48.4
2022-08-19T10:13:04.009Z,48.0
2022-08-19T10:14:04.005Z,47.9
2022-08-19T10:15:04.014Z,47.8
2022-08-19T10:16:03.998Z,47.7
2022-08-19T10:17:17.467Z,47.7
2022-08-19T10:18:04.006Z,47.6
2022-08-19T10:19:05.933Z,47.4
2022-08-19T10:20:03.988Z,47.4
2022-08-19T10:21:03.992Z,47.1
2022-08-19T10:22:03.975Z,47.2
2022-08-19T10:23:03.977Z,47.1
2022-08-19T10:24:04.012Z,46.9
2022-08-19T10:25:03.989Z,46.9
2022-08-19T10:26:03.996Z,46.9
2022-08-19T10:27:04.009Z,46.9
2022-08-19T10:28:03.976Z,46.7
2022-08-19T10:29:03.979Z,46.5
2022-08-19T10:30:03.985Z,46.1
2022-08-19T10:31:04.024Z,46.1
2022-08-19T10:32:03.990Z,46.0
2022-08-19T10:33:08.301Z,46.1
2022-08-19T10:34:03.989Z,46.2
2022-08-19T10:35:06.045Z,46.1
2022-08-19T10:36:04.184Z,46.2
2022-08-19T10:37:03.993Z,46.4
2022-08-19T10:38:04.106Z,46.5
2022-08-19T10:39:04.034Z,46.6
2022-08-19T10:40:04.030Z,46.4
2022-08-19T10:41:04.003Z,46.1
2022-08-19T10:42:03.990Z,46.0
2022-08-19T10:43:04.014Z,45.7
2022-08-19T10:44:04.575Z,45.4
2022-08-19T10:45:04.936Z,45.5
2022-08-19T10:46:04.023Z,45.3
2022-08-19T10:47:04.000Z,45.1
2022-08-19T10:48:03.995Z,45.3
2022-08-19T10:49:04.016Z,45.3
2022-08-19T10:50:03.986Z,45.2
2022-08-19T10:51:04.017Z,45.0
2022-08-19T10:52:04.007Z,45.1
2022-08-19T10:53:04.012Z,45.1
2022-08-19T10:55:12.771Z,45.0
2022-08-19T10:55:16.824Z,46.9
2022-08-19T10:56:03.988Z,45.2
2022-08-19T10:57:04.006Z,45.1
2022-08-19T10:58:04.051Z,45.0
2022-08-19T10:59:04.023Z,44.9
2022-08-19T11:00:03.987Z,44.9
2022-08-19T11:01:04.110Z,44.5
2022-08-19T11:02:03.998Z,44.7
2022-08-19T11:03:04.012Z,44.5
2022-08-19T11:04:03.995Z,44.2
2022-08-19T11:05:05.135Z,44.4
2022-08-19T11:06:03.995Z,44.3
2022-08-19T11:07:04.016Z,44.2
2022-08-19T11:08:03.998Z,44.2
2022-08-19T11:09:03.996Z,45.7
2022-08-19T11:10:04.002Z,45.8
2022-08-19T11:11:03.996Z,44.8
2022-08-19T11:12:04.787Z,45.6
2022-08-19T11:13:04.066Z,44.7
2022-08-19T11:14:03.980Z,44.5
2022-08-19T11:15:03.987Z,44.4
2022-08-19T11:16:06.751Z,44.3
2022-08-19T11:17:04.016Z,44.4
2022-08-19T11:18:13.198Z,44.8
2022-08-19T11:19:05.234Z,44.5
2022-08-19T11:20:04.432Z,44.2
2022-08-19T11:21:04.439Z,44.3
2022-08-19T11:22:04.412Z,44.2
2022-08-19T11:23:04.498Z,44.1
2022-08-19T11:24:04.465Z,44.3
2022-08-19T11:25:04.471Z,44.2
2022-08-19T11:26:04.486Z,44.2
2022-08-19T11:27:04.430Z,44.1
2022-08-19T11:28:04.412Z,44.1
2022-08-19T11:29:04.423Z,44.1
2022-08-19T11:30:04.427Z,44.1
2022-08-19T11:31:04.618Z,44.2
2022-08-19T11:32:04.404Z,44.1
2022-08-19T11:33:04.415Z,44.2
2022-08-19T11:34:04.445Z,44.2
2022-08-19T11:35:04.415Z,44.4
2022-08-19T11:36:06.008Z,44.3
2022-08-19T11:37:04.409Z,44.0
2022-08-19T11:38:08.250Z,44.0
2022-08-19T11:39:04.418Z,44.0
2022-08-19T11:40:04.473Z,44.1
2022-08-19T11:41:04.436Z,44.0
2022-08-19T11:42:04.440Z,43.7
2022-08-19T11:43:04.409Z,43.1
2022-08-19T11:44:04.418Z,43.3
2022-08-19T11:45:04.429Z,43.1
2022-08-19T11:46:04.424Z,43.3
2022-08-19T11:47:08.729Z,43.2
2022-08-19T11:48:04.420Z,42.8
2022-08-19T11:49:04.418Z,42.2
2022-08-19T11:50:04.424Z,41.8
2022-08-19T11:51:04.418Z,41.4
2022-08-19T11:52:04.411Z,41.4
2022-08-19T11:53:04.421Z,41.5
2022-08-19T11:54:04.416Z,41.5
2022-08-19T11:55:04.402Z,41.2
2022-08-19T11:56:04.440Z,41.3
2022-08-19T11:57:04.411Z,41.3
2022-08-19T11:58:04.429Z,41.4
2022-08-19T11:59:04.488Z,41.4
2022-08-19T12:00:04.444Z,41.1
2022-08-19T12:01:04.437Z,41.5
2022-08-19T12:02:04.418Z,41.5
2022-08-19T12:03:04.447Z,41.4
2022-08-19T12:04:04.455Z,41.2
2022-08-19T12:05:06.160Z,41.3
2022-08-19T12:06:04.457Z,41.3
2022-08-19T12:07:04.424Z,40.8
2022-08-19T12:08:04.436Z,41.2
2022-08-19T12:09:04.482Z,41.1
2022-08-19T12:10:04.431Z,40.6
2022-08-19T12:12:58.730Z,42.1
2022-08-19T12:13:03.811Z,42.1
2022-08-19T12:14:03.814Z,40.8
2022-08-19T12:15:03.983Z,41.0
2022-08-19T12:16:10.548Z,41.1
2022-08-19T12:17:04.334Z,40.9
2022-08-19T12:18:10.969Z,40.5
2022-08-19T12:19:04.651Z,40.2
2022-08-19T12:20:12.112Z,40.8
2022-08-19T12:21:04.075Z,40.1
2022-08-19T12:22:04.088Z,39.9
2022-08-19T12:23:04.078Z,39.5
2022-08-19T12:24:04.095Z,39.5
2022-08-19T12:25:04.073Z,40.3
2022-08-19T12:26:04.200Z,40.5
2022-08-19T12:27:04.087Z,41.0
2022-08-19T12:28:04.445Z,41.6
2022-08-19T12:29:05.646Z,41.7
2022-08-19T12:30:04.085Z,41.0
2022-08-19T12:31:04.106Z,40.5
2022-08-19T12:32:04.277Z,40.0
2022-08-19T18:50:43.364Z,39.0
2022-08-19T18:51:04.381Z,37.1
2022-08-19T18:52:04.399Z,36.5
2022-08-19T18:53:04.408Z,36.3
2022-08-19T18:54:04.384Z,36.2
2022-08-19T18:55:04.409Z,36.0
2022-08-19T18:56:04.383Z,35.8
2022-08-19T18:57:04.411Z,35.8
2022-08-19T18:58:11.111Z,35.9
2022-08-19T18:59:03.813Z,35.9
2022-08-19T19:00:03.832Z,35.9
2022-08-19T19:01:03.856Z,35.7
2022-08-19T19:02:04.458Z,35.6
2022-08-19T19:03:03.878Z,35.5
2022-08-19T19:04:03.836Z,35.6
2022-08-19T19:05:06.962Z,35.6
2022-08-19T19:06:03.857Z,35.5
2022-08-19T19:07:03.922Z,35.4
2022-08-19T19:08:03.819Z,35.5
2022-08-19T19:09:03.947Z,35.6
2022-08-19T19:10:03.834Z,35.8
2022-08-19T19:11:03.843Z,35.6
2022-08-19T19:12:03.820Z,35.4
2022-08-19T19:13:03.835Z,35.6
2022-08-19T19:14:03.811Z,35.4
2022-08-19T19:15:03.817Z,35.3
2022-08-19T19:16:03.861Z,35.2
2022-08-19T19:17:03.832Z,35.2
2022-08-19T19:18:03.846Z,35.1
2022-08-19T19:19:03.869Z,35.0
2022-08-19T19:20:03.829Z,35.1
2022-08-19T19:21:03.855Z,35.1
2022-08-19T19:22:03.805Z,35.3
2022-08-19T19:23:03.829Z,35.2
2022-08-19T19:24:03.876Z,35.3
2022-08-19T19:25:04.937Z,35.4
2022-08-19T19:26:03.847Z,35.4
2022-08-19T19:27:03.921Z,35.2
2022-08-19T19:28:03.823Z,35.2
2022-08-19T19:29:03.837Z,35.2
2022-08-19T19:30:03.830Z,35.3
2022-08-19T19:31:03.818Z,35.3
2022-08-19T19:32:03.841Z,35.3
2022-08-19T19:33:03.857Z,36.0
2022-08-19T19:34:03.821Z,36.3
2022-08-19T19:35:03.838Z,36.4
2022-08-19T19:36:03.847Z,36.1
2022-08-19T19:37:03.822Z,36.4
2022-08-19T19:38:03.821Z,36.2
2022-08-19T19:39:03.853Z,36.6
2022-08-19T19:40:04.034Z,36.2
2022-08-19T19:41:03.848Z,36.5
2022-08-19T19:42:03.834Z,36.4
2022-08-19T19:43:03.942Z,36.3